Time;durP1;ratioP1;P1;durP2;ratioP2;P2;SDS_P1;SDS_P2;PMS_P1;PMS_P2;Temp;Humidity;BMP_temperature;BMP_pressure;BME280_temperature;BME280_humidity;BME280_pressure;Samples;Min_cycle;Max_cycle;Signal;HPM_P1;HPM_P2
2022/09/22 00:01:37;;;;;;;8.02;3.90;;;6.40;99.90;;;;;;5092460;28;20453;-50
2022/09/22 00:04:06;;;;;;;9.98;3.95;;;6.20;99.90;;;;;;5092222;28;20040;-48
2022/09/22 00:06:39;;;;;;;8.15;4.32;;;6.30;99.90;;;;;;5093844;28;20071;-49
2022/09/22 00:09:07;;;;;;;5.05;2.83;;;7.30;99.90;;;;;;5092947;28;20043;-45
2022/09/22 00:11:41;;;;;;;6.65;2.90;;;6.30;99.90;;;;;;5096694;27;20032;-48
2022/09/22 00:14:14;;;;;;;5.10;2.72;;;6.10;99.90;;;;;;5096766;27;20148;-48
2022/09/22 00:16:46;;;;;;;5.55;2.30;;;6.40;99.90;;;;;;5095413;27;20116;-49
2022/09/22 00:19:15;;;;;;;5.83;2.40;;;7.10;99.90;;;;;;5096567;27;20444;-48
2022/09/22 00:21:41;;;;;;;5.65;2.50;;;6.00;99.90;;;;;;5095827;28;20069;-48
2022/09/22 00:24:07;;;;;;;4.30;2.47;;;7.90;99.90;;;;;;5096057;27;20031;-48
2022/09/22 00:26:34;;;;;;;5.90;2.47;;;6.00;99.90;;;;;;5094271;27;20043;-47
2022/09/22 00:29:00;;;;;;;32.17;4.10;;;5.80;99.90;;;;;;5095222;27;20100;-47
2022/09/22 00:31:28;;;;;;;16.40;4.20;;;5.70;99.90;;;;;;5094738;27;20028;-47
2022/09/22 00:33:54;;;;;;;6.18;3.40;;;5.80;99.90;;;;;;5096229;27;20200;-48
2022/09/22 00:36:24;;;;;;;9.23;3.20;;;7.20;99.90;;;;;;5093909;27;20070;-48
2022/09/22 00:38:50;;;;;;;5.63;3.28;;;6.30;99.90;;;;;;5095522;27;20040;-50
2022/09/22 00:41:29;;;;;;;22.95;4.55;;;6.90;99.90;;;;;;5094463;27;20035;-47
2022/09/22 00:44:20;;;;;;;5.35;3.38;;;5.70;99.90;;;;;;5094737;27;20043;-50
2022/09/22 00:46:51;;;;;;;6.70;3.20;;;5.80;99.90;;;;;;5094862;28;20047;-44
2022/09/22 00:49:21;;;;;;;7.57;3.40;;;5.70;99.90;;;;;;5097380;27;20036;-48
2022/09/22 00:51:47;;;;;;;4.50;2.88;;;6.90;99.90;;;;;;5095603;27;20032;-47
2022/09/22 00:54:16;;;;;;;4.40;2.88;;;6.50;99.90;;;;;;5094956;27;20055;-45
2022/09/22 00:56:50;;;;;;;3.72;2.38;;;5.50;99.90;;;;;;5095102;27;20031;-50
2022/09/22 00:59:20;;;;;;;3.38;1.88;;;5.50;99.90;;;;;;5094870;28;20344;-47
2022/09/22 01:01:46;;;;;;;4.45;2.00;;;7.60;99.90;;;;;;5095800;27;20050;-47
2022/09/22 01:04:12;;;;;;;4.22;2.08;;;5.90;99.90;;;;;;5095315;27;20039;-43
2022/09/22 01:06:39;;;;;;;4.30;2.17;;;6.20;99.90;;;;;;5096670;27;20562;-47
2022/09/22 01:09:06;;;;;;;6.45;2.30;;;6.90;99.90;;;;;;5094868;28;20566;-47
2022/09/22 01:11:33;;;;;;;5.47;2.75;;;5.50;99.90;;;;;;5095807;28;20684;-49
2022/09/22 01:14:19;;;;;;;5.00;2.88;;;7.50;99.90;;;;;;5095497;27;21042;-50
2022/09/22 01:17:30;;;;;;;4.60;2.50;;;5.30;99.90;;;;;;5096339;27;20073;-52
2022/09/22 01:20:14;;;;;;;7.28;2.50;;;5.50;99.90;;;;;;5096108;27;22254;-47
2022/09/22 01:22:58;;;;;;;4.70;2.38;;;5.60;99.90;;;;;;5096009;27;20042;-44
2022/09/22 01:25:45;;;;;;;3.40;1.77;;;5.60;99.90;;;;;;5095105;28;20039;-44
2022/09/22 01:28:45;;;;;;;2.55;1.55;;;5.40;99.90;;;;;;5094656;28;20043;-45
2022/09/22 01:31:11;;;;;;;6.10;1.80;;;5.60;99.90;;;;;;5095767;27;20067;-46
2022/09/22 01:33:52;;;;;;;3.58;1.70;;;5.50;99.90;;;;;;5095305;27;20462;-46
2022/09/22 01:36:49;;;;;;;2.88;1.50;;;5.40;99.90;;;;;;5094355;27;20874;-46
2022/09/22 01:39:28;;;;;;;3.47;1.55;;;5.30;99.90;;;;;;5092216;27;20055;-48
2022/09/22 01:42:00;;;;;;;2.92;1.67;;;5.40;99.90;;;;;;5095321;27;20059;-46
2022/09/22 01:44:33;;;;;;;3.60;1.80;;;6.40;99.90;;;;;;5094319;27;20067;-45
2022/09/22 01:47:12;;;;;;;4.82;2.30;;;5.30;99.90;;;;;;5094704;27;20775;-45
2022/09/22 01:49:41;;;;;;;4.68;2.40;;;6.80;99.90;;;;;;5095771;27;20043;-45
2022/09/22 01:52:15;;;;;;;4.93;2.08;;;5.30;99.90;;;;;;5094418;27;20064;-44
2022/09/22 01:54:51;;;;;;;5.43;2.28;;;5.60;99.90;;;;;;5094457;27;20070;-45
2022/09/22 01:57:25;;;;;;;6.03;2.80;;;5.50;99.90;;;;;;5094871;27;20036;-49
2022/09/22 01:59:54;;;;;;;4.90;2.30;;;5.60;99.90;;;;;;5095315;27;20466;-45
2022/09/22 02:02:28;;;;;;;5.15;2.50;;;5.80;99.90;;;;;;5093453;27;20576;-48
2022/09/22 02:04:57;;;;;;;4.97;2.50;;;5.30;99.90;;;;;;5093529;27;20468;-45
2022/09/22 02:07:32;;;;;;;5.13;2.58;;;6.40;99.90;;;;;;5094554;27;20104;-49
2022/09/22 02:10:01;;;;;;;6.75;2.67;;;5.60;99.90;;;;;;5094529;27;20051;-48
2022/09/22 02:12:28;;;;;;;6.43;2.42;;;5.40;99.90;;;;;;5092432;27;20182;-46
2022/09/22 02:14:54;;;;;;;5.07;2.95;;;5.50;99.90;;;;;;5095549;27;20119;-50
2022/09/22 02:17:19;;;;;;;5.28;2.63;;;6.50;99.90;;;;;;5096122;27;20446;-45
2022/09/22 02:19:46;;;;;;;5.25;3.05;;;6.10;99.90;;;;;;5094140;27;20046;-45
2022/09/22 02:22:12;;;;;;;6.43;2.72;;;5.40;99.90;;;;;;5096289;27;20080;-47
2022/09/22 02:24:43;;;;;;;4.35;2.10;;;5.50;99.90;;;;;;5095656;27;20047;-48
2022/09/22 02:27:35;;;;;;;4.53;2.00;;;5.50;99.90;;;;;;5094619;27;20504;-46
2022/09/22 02:30:09;;;;;;;4.93;1.85;;;5.80;99.90;;;;;;5094073;28;20058;-49
2022/09/22 02:32:38;;;;;;;3.53;1.80;;;5.40;99.90;;;;;;5094032;28;20094;-49
2022/09/22 02:35:05;;;;;;;6.72;2.33;;;6.10;99.90;;;;;;5093687;27;20074;-48
2022/09/22 02:37:59;;;;;;;3.97;1.60;;;5.30;99.90;;;;;;5094207;27;20100;-49
2022/09/22 02:40:29;;;;;;;5.43;2.10;;;5.40;99.90;;;;;;5078227;27;20108;-45
2022/09/22 02:43:12;;;;;;;9.18;2.60;;;4.40;99.90;;;;;;5092229;28;21720;-46
2022/09/22 02:46:03;;;;;;;6.20;2.10;;;5.20;99.90;;;;;;5094252;27;20043;-49
2022/09/22 02:48:47;;;;;;;4.20;2.53;;;5.20;99.90;;;;;;5094445;27;20108;-44
2022/09/22 02:51:14;;;;;;;12.13;3.13;;;5.30;99.90;;;;;;5092923;28;20042;-47
2022/09/22 02:53:40;;;;;;;4.90;2.33;;;5.40;99.90;;;;;;5092597;28;20321;-48
2022/09/22 02:56:05;;;;;;;6.68;2.28;;;5.40;99.90;;;;;;5093918;28;20723;-45
2022/09/22 02:58:31;;;;;;;4.47;2.10;;;5.90;99.90;;;;;;5092824;27;20082;-46
2022/09/22 03:00:57;;;;;;;3.60;2.15;;;6.00;99.90;;;;;;5093158;28;20055;-45
2022/09/22 03:03:23;;;;;;;3.42;2.00;;;5.80;99.90;;;;;;5092878;28;20077;-47
2022/09/22 03:05:48;;;;;;;5.80;2.30;;;5.30;99.90;;;;;;5093059;28;20032;-46
2022/09/22 03:08:14;;;;;;;6.47;2.33;;;6.70;99.90;;;;;;5092960;27;20781;-48
2022/09/22 03:10:40;;;;;;;4.30;1.80;;;6.30;99.90;;;;;;5092301;27;20048;-45
2022/09/22 03:13:06;;;;;;;4.22;1.83;;;6.80;99.90;;;;;;5093041;27;20156;-47
2022/09/22 03:15:31;;;;;;;3.80;1.90;;;5.30;99.90;;;;;;5093394;27;20063;-48
2022/09/22 03:17:57;;;;;;;5.13;2.10;;;5.20;99.90;;;;;;5093224;28;20136;-44
2022/09/22 03:20:23;;;;;;;3.83;1.90;;;6.50;99.90;;;;;;5093992;28;20109;-48
2022/09/22 03:22:49;;;;;;;4.10;2.35;;;5.50;99.90;;;;;;5093906;28;20031;-48
2022/09/22 03:25:15;;;;;;;3.78;2.20;;;6.30;99.90;;;;;;5093288;27;20043;-49
2022/09/22 03:27:41;;;;;;;3.70;2.17;;;5.30;99.90;;;;;;5091380;28;20043;-48
2022/09/22 03:30:07;;;;;;;3.80;2.03;;;5.30;99.90;;;;;;5093401;28;20412;-47
2022/09/22 03:32:33;;;;;;;3.55;2.20;;;5.20;99.90;;;;;;5093469;28;20043;-47
2022/09/22 03:34:59;;;;;;;8.75;2.33;;;5.20;99.90;;;;;;5092845;27;20762;-48
2022/09/22 03:37:25;;;;;;;4.45;2.13;;;6.40;99.90;;;;;;5092868;27;20036;-49
2022/09/22 03:39:51;;;;;;;3.47;2.05;;;5.00;99.90;;;;;;5090937;27;20043;-46
2022/09/22 03:42:16;;;;;;;4.38;2.53;;;5.00;99.90;;;;;;5088346;27;20035;-48
2022/09/22 03:44:42;;;;;;;4.80;2.83;;;5.90;99.90;;;;;;5091757;28;20397;-47
2022/09/22 03:47:08;;;;;;;4.45;2.08;;;5.00;99.90;;;;;;5092478;28;20078;-46
2022/09/22 03:49:34;;;;;;;4.15;2.10;;;4.90;99.90;;;;;;5093351;28;20031;-46
2022/09/22 03:52:00;;;;;;;4.40;2.15;;;6.00;99.90;;;;;;5092118;28;20059;-45
2022/09/22 03:54:25;;;;;;;6.68;1.95;;;4.80;99.90;;;;;;5092023;28;20036;-49
2022/09/22 03:56:51;;;;;;;4.63;2.40;;;5.00;99.90;;;;;;5091570;28;20039;-48
2022/09/22 03:59:17;;;;;;;4.38;1.95;;;5.00;99.90;;;;;;5090973;28;20054;-48
2022/09/22 04:01:43;;;;;;;5.75;2.03;;;4.70;99.90;;;;;;5093396;28;20032;-49
2022/09/22 04:04:09;;;;;;;3.25;1.80;;;4.90;99.90;;;;;;5091723;28;20667;-49
2022/09/22 04:06:36;;;;;;;4.53;1.80;;;4.90;99.90;;;;;;5092008;28;20043;-47
2022/09/22 04:09:02;;;;;;;5.55;2.63;;;4.70;99.90;;;;;;5090892;28;20634;-47
2022/09/22 04:11:28;;;;;;;3.58;2.10;;;4.70;99.90;;;;;;5092785;28;20086;-47
2022/09/22 04:13:54;;;;;;;5.07;2.35;;;6.50;99.90;;;;;;5090671;28;20036;-48
2022/09/22 04:16:20;;;;;;;6.32;2.15;;;4.70;99.90;;;;;;5091562;28;20059;-45
2022/09/22 04:18:45;;;;;;;6.72;2.40;;;4.70;99.90;;;;;;5092478;28;20036;-45
2022/09/22 04:21:11;;;;;;;5.03;2.40;;;5.20;99.90;;;;;;5093379;28;20031;-48
2022/09/22 04:23:37;;;;;;;4.65;2.00;;;4.80;99.90;;;;;;5090979;28;20053;-45
2022/09/22 04:26:04;;;;;;;4.28;1.90;;;4.80;99.90;;;;;;5092303;28;20032;-45
2022/09/22 04:28:30;;;;;;;4.05;1.60;;;4.80;99.90;;;;;;5092788;28;20036;-48
2022/09/22 04:30:56;;;;;;;4.22;1.70;;;4.80;99.90;;;;;;5092660;28;20063;-46
2022/09/22 04:33:22;;;;;;;3.72;1.50;;;4.90;99.90;;;;;;5092006;28;20419;-47
2022/09/22 04:35:50;;;;;;;4.57;1.42;;;4.70;99.90;;;;;;5092272;28;20044;-45
2022/09/22 04:38:17;;;;;;;4.50;1.50;;;5.40;99.90;;;;;;5091976;28;20050;-45
2022/09/22 04:40:43;;;;;;;3.00;1.60;;;5.20;99.90;;;;;;5093106;28;20031;-43
2022/09/22 04:43:09;;;;;;;3.05;1.50;;;4.80;99.90;;;;;;5092637;28;20055;-48
2022/09/22 04:45:35;;;;;;;5.45;1.73;;;4.60;99.90;;;;;;5093206;28;20035;-49
2022/09/22 04:48:01;;;;;;;2.63;1.38;;;4.60;99.90;;;;;;5074040;28;20571;-49
2022/09/22 04:50:27;;;;;;;4.63;1.90;;;4.60;99.90;;;;;;5093657;28;20391;-45
2022/09/22 04:52:55;;;;;;;3.17;1.40;;;4.60;99.90;;;;;;5092520;28;20462;-46
2022/09/22 04:55:23;;;;;;;4.10;1.40;;;6.50;99.90;;;;;;5091919;28;20036;-47
2022/09/22 04:57:50;;;;;;;2.90;1.50;;;4.70;99.90;;;;;;5095203;28;20075;-43
2022/09/22 05:00:18;;;;;;;3.55;1.30;;;4.60;99.90;;;;;;5095298;28;20085;-45
2022/09/22 05:02:44;;;;;;;2.85;1.48;;;4.60;99.90;;;;;;5097009;27;20150;-42
2022/09/22 05:05:10;;;;;;;4.72;1.48;;;4.40;99.90;;;;;;5096798;27;20071;-48
2022/09/22 05:07:44;;;;;;;3.90;1.58;;;5.40;99.90;;;;;;5094506;27;20191;-47
2022/09/22 05:10:11;;;;;;;3.97;1.67;;;4.40;99.90;;;;;;5096134;27;20047;-48
2022/09/22 05:12:43;;;;;;;4.60;2.25;;;4.60;99.90;;;;;;5095235;27;20411;-48
2022/09/22 05:15:11;;;;;;;4.93;2.00;;;4.70;99.90;;;;;;5093364;28;20043;-48
2022/09/22 05:17:43;;;;;;;8.70;1.88;;;4.40;99.90;;;;;;5094876;27;21135;-48
2022/09/22 05:20:10;;;;;;;8.45;2.65;;;4.60;99.90;;;;;;5096131;27;20108;-46
2022/09/22 05:22:38;;;;;;;4.70;2.63;;;4.60;99.90;;;;;;5095267;27;20036;-47
2022/09/22 05:25:06;;;;;;;6.53;2.58;;;4.60;99.90;;;;;;5094245;27;20135;-48
2022/09/22 05:27:32;;;;;;;6.13;2.20;;;4.70;99.90;;;;;;5094411;27;20051;-48
2022/09/22 05:29:58;;;;;;;5.07;2.72;;;4.60;99.90;;;;;;5095494;27;20039;-47
2022/09/22 05:32:23;;;;;;;6.90;2.50;;;4.60;99.90;;;;;;5093944;27;20569;-46
2022/09/22 05:34:49;;;;;;;7.47;2.63;;;4.60;99.90;;;;;;5092285;27;20043;-49
2022/09/22 05:37:15;;;;;;;6.82;2.30;;;4.60;99.90;;;;;;5095305;27;20662;-48
2022/09/22 05:39:40;;;;;;;7.68;2.60;;;4.70;99.90;;;;;;5093554;27;20050;-48
2022/09/22 05:42:06;;;;;;;5.70;2.30;;;4.80;99.90;;;;;;5093577;27;20583;-45
2022/09/22 05:44:32;;;;;;;4.30;2.33;;;4.80;99.90;;;;;;5092296;27;20528;-46
2022/09/22 05:46:57;;;;;;;5.78;2.42;;;4.80;99.90;;;;;;5095308;27;20047;-49
2022/09/22 05:49:23;;;;;;;4.60;2.05;;;4.70;99.90;;;;;;5094340;27;20244;-48
2022/09/22 05:51:54;;;;;;;8.10;2.72;;;4.80;99.90;;;;;;5094952;28;20044;-49
2022/09/22 05:54:19;;;;;;;6.28;2.95;;;4.90;99.90;;;;;;5093706;27;20047;-47
2022/09/22 05:56:45;;;;;;;3.72;2.40;;;6.40;99.90;;;;;;5095078;27;20116;-49
2022/09/22 05:59:11;;;;;;;4.63;2.45;;;5.10;99.90;;;;;;5095435;27;20043;-46
2022/09/22 06:01:38;;;;;;;7.75;2.92;;;5.10;99.90;;;;;;5095660;28;20133;-44
2022/09/22 06:04:03;;;;;;;5.40;2.97;;;5.20;99.90;;;;;;5094784;28;20043;-47
2022/09/22 06:06:29;;;;;;;7.22;3.72;;;5.30;99.90;;;;;;5095250;28;20039;-49
2022/09/22 06:08:55;;;;;;;5.82;3.63;;;5.30;99.90;;;;;;5094988;27;20527;-51
2022/09/22 06:11:20;;;;;;;9.70;4.32;;;5.50;99.90;;;;;;5095412;27;20126;-47
2022/09/22 06:13:52;;;;;;;9.23;5.70;;;6.50;99.90;;;;;;5094342;27;20377;-47
2022/09/22 06:16:19;;;;;;;10.88;5.45;;;8.00;99.90;;;;;;5094208;27;20039;-46
2022/09/22 06:18:46;;;;;;;11.27;6.10;;;6.00;99.90;;;;;;5093695;28;20047;-48
2022/09/22 06:21:12;;;;;;;11.13;5.50;;;6.20;99.90;;;;;;5095499;28;20042;-48
2022/09/22 06:23:39;;;;;;;10.35;5.60;;;6.40;99.90;;;;;;5093177;27;20039;-47
2022/09/22 06:26:06;;;;;;;10.18;5.70;;;7.50;99.90;;;;;;5093869;27;20392;-47
2022/09/22 06:28:32;;;;;;;10.65;5.15;;;7.30;99.90;;;;;;5094182;27;20043;-47
2022/09/22 06:30:59;;;;;;;11.30;5.90;;;7.60;99.90;;;;;;5094431;27;20050;-48
2022/09/22 06:33:28;;;;;;;8.90;4.60;;;9.10;99.90;;;;;;5093830;27;20118;-48
2022/09/22 06:35:53;;;;;;;8.13;4.65;;;7.80;99.90;;;;;;5091649;27;20039;-49
2022/09/22 06:38:20;;;;;;;13.43;5.20;;;8.10;99.90;;;;;;5093614;27;20031;-47
2022/09/22 06:40:45;;;;;;;10.32;4.75;;;9.00;99.90;;;;;;5093361;27;20042;-48
2022/09/22 06:43:19;;;;;;;12.00;5.18;;;10.30;99.90;;;;;;5093627;27;20516;-48
2022/09/22 06:45:45;;;;;;;11.75;4.55;;;9.20;99.90;;;;;;5092421;28;20043;-47
2022/09/22 06:48:11;;;;;;;8.90;4.40;;;9.50;99.90;;;;;;5093596;27;20051;-47
2022/09/22 06:50:39;;;;;;;10.57;4.75;;;12.30;99.90;;;;;;5094397;27;20444;-49
2022/09/22 06:53:07;;;;;;;10.32;4.10;;;10.20;93.20;;;;;;5093018;27;20043;-46
2022/09/22 06:55:34;;;;;;;10.43;4.80;;;10.20;90.20;;;;;;5094710;27;20032;-48
2022/09/22 06:58:01;;;;;;;7.53;4.15;;;12.40;84.10;;;;;;5092606;28;20294;-46
2022/09/22 07:00:31;;;;;;;5.72;4.10;;;10.20;82.00;;;;;;5092235;27;20075;-49
2022/09/22 07:03:07;;;;;;;6.93;3.88;;;11.00;90.40;;;;;;5092706;27;21091;-47
2022/09/22 07:05:34;;;;;;;10.68;4.50;;;10.90;83.60;;;;;;5093247;27;20032;-49
2022/09/22 07:08:00;;;;;;;9.55;4.25;;;10.70;79.50;;;;;;5092833;27;20096;-47
2022/09/22 07:10:26;;;;;;;8.63;4.07;;;11.00;83.50;;;;;;5091769;28;20363;-47
2022/09/22 07:12:53;;;;;;;13.93;4.32;;;11.60;83.20;;;;;;5092444;27;20075;-48
2022/09/22 07:15:19;;;;;;;13.95;4.43;;;14.20;73.70;;;;;;5092345;28;20133;-50
2022/09/22 07:17:49;;;;;;;9.02;4.00;;;12.70;34.10;;;;;;5092296;27;20180;-49
2022/09/22 07:20:16;;;;;;;7.78;4.28;;;13.40;12.20;;;;;;5093224;28;20047;-48
2022/09/22 07:22:42;;;;;;;9.18;4.20;;;14.10;7.10;;;;;;5093308;28;20051;-49
2022/09/22 07:25:08;;;;;;;8.32;3.83;;;13.40;1.00;;;;;;5092608;28;20080;-48
2022/09/22 07:27:34;;;;;;;11.75;3.60;;;13.70;1.00;;;;;;5093001;27;20078;-47
2022/09/22 07:30:00;;;;;;;7.72;4.07;;;14.50;1.00;;;;;;5093560;28;20125;-46
2022/09/22 07:32:27;;;;;;;7.18;3.92;;;13.70;1.00;;;;;;5093160;27;20128;-49
2022/09/22 07:34:52;;;;;;;10.27;4.00;;;13.40;1.00;;;;;;5093008;28;20043;-46
2022/09/22 07:37:18;;;;;;;9.70;5.18;;;13.10;1.00;;;;;;5093971;28;20052;-49
2022/09/22 07:39:44;;;;;;;8.27;3.60;;;13.30;1.00;;;;;;5092789;27;20495;-47
2022/09/22 07:42:11;;;;;;;6.20;3.28;;;13.50;1.00;;;;;;5092440;28;20043;-48
2022/09/22 07:48:34;;;;;;;6.75;3.85;;;13.20;1.00;;;;;;5094368;27;20567;-48
2022/09/22 07:50:07;;;;;;;7.70;3.35;;;15.50;1.00;;;;;;5093217;27;20739;-46
2022/09/22 07:52:33;;;;;;;8.88;3.92;;;13.60;1.00;;;;;;5093079;28;20031;-48
2022/09/22 07:54:59;;;;;;;7.70;3.25;;;14.10;1.00;;;;;;5092866;28;20051;-47
2022/09/22 07:57:24;;;;;;;8.05;3.60;;;14.50;1.00;;;;;;5091455;28;20072;-49
2022/09/22 07:59:51;;;;;;;10.10;3.72;;;14.50;1.00;;;;;;5091419;28;20485;-48
2022/09/22 08:02:17;;;;;;;7.50;3.00;;;14.80;1.00;;;;;;5091476;28;20043;-45
2022/09/22 08:04:43;;;;;;;9.98;3.42;;;14.60;1.00;;;;;;5092694;28;20040;-49
2022/09/22 08:07:08;;;;;;;8.30;3.08;;;14.60;1.00;;;;;;5092288;28;20081;-48
2022/09/22 08:09:34;;;;;;;7.68;3.15;;;14.40;1.00;;;;;;5092264;28;20563;-50
2022/09/22 08:12:01;;;;;;;9.80;3.20;;;14.30;1.00;;;;;;5093636;28;20099;-47
2022/09/22 08:14:29;;;;;;;8.13;3.35;;;14.00;1.00;;;;;;5093134;28;20043;-48
2022/09/22 08:16:56;;;;;;;8.30;3.35;;;14.10;1.00;;;;;;5090815;28;20040;-48
2022/09/22 08:19:22;;;;;;;7.00;3.05;;;14.20;1.00;;;;;;5092504;28;20068;-49
2022/09/22 08:21:51;;;;;;;7.40;3.20;;;14.00;1.00;;;;;;5094171;28;20050;-49
2022/09/22 08:24:20;;;;;;;6.93;3.00;;;12.00;1.00;;;;;;5093031;28;20044;-46
2022/09/22 08:26:46;;;;;;;7.65;2.80;;;13.90;1.00;;;;;;5092458;28;20036;-47
2022/09/22 08:29:12;;;;;;;7.85;3.10;;;15.30;1.00;;;;;;5091533;28;20068;-48
2022/09/22 08:31:40;;;;;;;8.45;3.10;;;13.80;1.00;;;;;;5095180;28;20155;-48
2022/09/22 08:34:07;;;;;;;5.90;2.65;;;13.70;1.00;;;;;;5095384;27;20278;-49
2022/09/22 08:36:33;;;;;;;8.70;3.15;;;13.70;1.00;;;;;;5096007;27;20391;-47
2022/09/22 08:39:01;;;;;;;7.65;2.83;;;13.80;1.00;;;;;;5096437;27;20202;-48
2022/09/22 08:41:26;;;;;;;4.80;2.42;;;13.80;1.00;;;;;;5095831;28;20050;-49
2022/09/22 08:43:59;;;;;;;6.07;2.90;;;14.00;1.00;;;;;;5095382;27;20048;-47
2022/09/22 08:46:29;;;;;;;10.75;3.05;;;14.10;1.00;;;;;;5095385;27;20039;-49
2022/09/22 08:52:20;;;;;;;5.53;2.50;;;14.60;99.90;;;;;;5097312;28;20044;-45
2022/09/22 08:54:47;;;;;;;5.32;2.83;;;14.50;99.90;;;;;;5096019;28;20047;-48
2022/09/22 08:57:44;;;;;;;7.15;2.58;;;14.50;99.90;;;;;;5096095;27;20047;-47
2022/09/22 09:00:13;;;;;;;6.43;2.00;;;14.60;99.90;;;;;;5096108;27;20130;-50
2022/09/22 09:03:18;;;;;;;8.00;3.03;;;14.70;99.90;;;;;;5096172;27;20036;-47
2022/09/22 09:05:57;;;;;;;6.45;2.33;;;14.60;99.90;;;;;;5089654;27;20093;-47
2022/09/22 09:09:00;;;;;;;8.63;2.90;;;14.80;99.90;;;;;;5095797;27;20122;-48
2022/09/22 09:11:35;;;;;;;8.77;2.33;;;16.50;99.90;;;;;;5089999;27;20047;-49
2022/09/22 09:14:30;;;;;;;7.18;2.58;;;14.70;99.90;;;;;;5095511;27;20387;-50
2022/09/22 09:17:08;;;;;;;6.30;2.30;;;14.90;28.30;;;;;;5096360;27;20043;-49
2022/09/22 09:19:41;;;;;;;8.18;2.78;;;14.70;99.90;;;;;;5095482;27;20044;-49
2022/09/22 09:22:23;;;;;;;4.97;2.17;;;14.80;99.90;;;;;;5095828;27;20032;-47
2022/09/22 09:24:53;;;;;;;6.88;2.53;;;14.90;1.00;;;;;;5095234;27;20710;-48
2022/09/22 09:27:23;;;;;;;5.95;2.42;;;14.90;99.90;;;;;;5096617;27;20043;-49
2022/09/22 09:29:54;;;;;;;6.05;2.10;;;15.00;81.80;;;;;;5095953;27;20043;-51
2022/09/22 09:32:33;;;;;;;9.45;3.20;;;14.80;34.00;;;;;;5094552;27;20040;-47
2022/09/22 09:35:01;;;;;;;7.30;2.05;;;14.90;99.90;;;;;;5095793;27;20496;-49
2022/09/22 09:37:27;;;;;;;6.05;2.13;;;14.90;1.00;;;;;;5095075;27;20519;-46
2022/09/22 09:39:54;;;;;;;6.47;2.30;;;15.20;99.90;;;;;;5095711;27;20043;-49
2022/09/22 09:42:28;;;;;;;7.00;2.25;;;15.20;99.90;;;;;;5094392;27;20028;-49
2022/09/22 09:44:56;;;;;;;6.97;2.67;;;15.40;99.90;;;;;;5094314;28;20515;-50
2022/09/22 09:47:35;;;;;;;6.55;2.22;;;15.40;50.40;;;;;;5095288;27;20043;-48
2022/09/22 09:50:02;;;;;;;4.97;1.98;;;15.40;99.90;;;;;;5095738;27;20500;-50
2022/09/22 09:52:29;;;;;;;7.05;2.47;;;15.40;99.90;;;;;;5096319;27;20330;-50
2022/09/22 09:54:55;;;;;;;5.75;2.20;;;13.60;99.90;;;;;;5094638;27;20416;-47
2022/09/22 09:57:21;;;;;;;6.15;2.40;;;15.60;1.50;;;;;;5095293;28;20093;-49
2022/09/22 10:03:14;;;;;;;7.32;2.97;;;16.00;99.90;;;;;;5095718;27;20465;-54
2022/09/22 10:05:42;;;;;;;5.68;2.67;;;16.20;80.40;;;;;;5094857;27;20091;-50
2022/09/22 10:08:22;;;;;;;6.82;2.67;;;16.10;37.20;;;;;;5093691;27;20218;-49
2022/09/22 10:10:48;;;;;;;9.25;3.20;;;16.30;99.90;;;;;;5094718;27;21101;-49
2022/09/22 10:13:27;;;;;;;7.93;3.08;;;16.40;99.90;;;;;;5094773;28;20093;-49
2022/09/22 10:16:18;;;;;;;13.85;4.13;;;16.80;99.90;;;;;;5093447;28;20399;-48
2022/09/22 10:18:43;;;;;;;11.40;3.90;;;16.60;99.90;;;;;;5093986;28;20065;-49
2022/09/22 10:21:21;;;;;;;8.40;2.95;;;16.90;99.90;;;;;;5093896;28;20058;-49
2022/09/22 10:23:52;;;;;;;7.00;3.03;;;17.20;99.90;;;;;;5096024;27;20395;-49
2022/09/22 10:26:31;;;;;;;7.50;3.30;;;17.40;99.90;;;;;;5094594;27;20453;-49
2022/09/22 10:29:16;;;;;;;9.40;4.20;;;17.40;99.90;;;;;;5095180;27;20050;-49
2022/09/22 10:32:02;;;;;;;12.05;3.47;;;17.60;99.90;;;;;;5094405;27;20032;-49
2022/09/22 10:34:39;;;;;;;9.27;3.03;;;17.60;1.00;;;;;;5094546;27;20051;-49
2022/09/22 10:37:09;;;;;;;7.93;3.10;;;18.10;80.80;;;;;;5095185;27;20040;-47
2022/09/22 10:40:13;;;;;;;6.85;2.67;;;17.90;99.90;;;;;;5095414;27;20043;-49
2022/09/22 10:42:44;;;;;;;5.97;2.55;;;18.20;99.90;;;;;;5087146;27;20055;-47
2022/09/22 10:45:15;;;;;;;5.70;2.75;;;17.90;1.00;;;;;;5093299;28;20046;-48
2022/09/22 10:47:58;;;;;;;8.27;2.95;;;17.80;99.90;;;;;;5093628;27;20138;-45
2022/09/22 10:50:27;;;;;;;7.70;2.40;;;18.20;99.90;;;;;;5094659;27;20043;-48
2022/09/22 10:53:26;;;;;;;6.25;1.88;;;18.20;99.90;;;;;;5093430;27;20581;-48
2022/09/22 10:56:04;;;;;;;9.52;1.98;;;18.20;83.10;;;;;;5093200;28;20135;-49
2022/09/22 10:58:54;;;;;;;6.22;1.98;;;18.40;39.70;;;;;;5092661;27;20102;-47
2022/09/22 11:01:32;;;;;;;11.52;2.20;;;18.60;1.00;;;;;;5093279;27;20411;-49
2022/09/22 11:04:27;;;;;;;10.63;2.20;;;18.70;1.00;;;;;;5094547;27;20059;-49
2022/09/22 11:13:52;;;;;;;8.00;2.95;;;18.50;1.00;;;;;;5093834;27;20059;-48
2022/09/22 11:17:02;;;;;;;12.18;3.10;;;18.80;99.90;;;;;;5092148;27;20043;-46
2022/09/22 11:20:20;;;;;;;7.13;2.83;;;18.80;99.90;;;;;;5036306;28;20675;-48
2022/09/22 11:23:03;;;;;;;7.00;3.88;;;18.90;99.90;;;;;;5074971;28;20052;-47
2022/09/22 11:25:44;;;;;;;6.60;3.30;;;19.10;99.90;;;;;;5094038;27;20104;-48
2022/09/22 11:28:50;;;;;;;10.70;4.18;;;18.80;99.90;;;;;;5093062;28;20047;-48
2022/09/22 11:31:46;;;;;;;7.82;3.85;;;19.00;99.90;;;;;;5092484;28;20031;-48
2022/09/22 11:34:18;;;;;;;8.88;3.90;;;18.90;99.90;;;;;;5088347;28;20067;-50
2022/09/22 11:36:47;;;;;;;;;;;19.00;99.90;;;;;;5092837;27;20043;-47
2022/09/22 11:39:28;;;;;;;11.00;4.57;;;19.00;99.90;;;;;;5091908;28;19927;-50
2022/09/22 11:42:42;;;;;;;9.55;3.53;;;18.80;99.90;;;;;;5092849;28;20146;-46
2022/09/22 11:45:26;;;;;;;9.25;3.55;;;18.90;99.90;;;;;;5093775;28;20048;-46
2022/09/22 11:48:01;;;;;;;7.95;3.83;;;19.00;99.90;;;;;;5093565;28;20055;-51
2022/09/22 11:50:58;;;;;;;6.93;3.42;;;19.00;99.90;;;;;;5093774;28;20043;-53
2022/09/22 11:54:04;;;;;;;7.78;2.90;;;18.60;99.90;;;;;;5093127;28;20569;-49
2022/09/22 11:56:37;;;;;;;9.88;4.03;;;18.90;99.90;;;;;;5094634;28;20035;-51
2022/09/22 11:59:30;;;;;;;10.88;3.67;;;18.70;99.90;;;;;;5093305;28;20047;-51
2022/09/22 12:02:03;;;;;;;11.00;4.00;;;18.60;99.90;;;;;;5092461;28;20073;-50
2022/09/22 12:04:51;;;;;;;9.73;3.80;;;18.30;99.90;;;;;;5092717;28;20046;-51
2022/09/22 12:07:28;;;;;;;7.63;4.05;;;18.40;99.90;;;;;;5096524;27;20047;-50
2022/09/22 12:10:05;;;;;;;11.23;3.92;;;18.30;99.90;;;;;;5096337;28;20496;-49
2022/09/22 12:12:32;;;;;;;8.48;3.45;;;18.20;99.90;;;;;;5097323;27;20044;-50
2022/09/22 12:15:28;;;;;;;9.48;4.18;;;18.30;99.90;;;;;;5095426;27;20055;-47
2022/09/22 12:17:58;;;;;;;10.32;4.15;;;18.10;99.90;;;;;;5097071;27;20051;-48
2022/09/22 12:20:32;;;;;;;14.23;3.70;;;18.00;99.90;;;;;;5096910;27;20143;-50
2022/09/22 12:23:22;;;;;;;10.65;4.03;;;17.80;99.90;;;;;;5097645;27;20616;-49
2022/09/22 12:25:53;;;;;;;7.70;3.50;;;17.60;99.90;;;;;;5096547;27;20047;-50
2022/09/22 12:28:27;;;;;;;10.00;3.33;;;17.30;99.90;;;;;;5095572;27;20425;-50
2022/09/22 12:31:03;;;;;;;10.50;4.38;;;17.60;99.90;;;;;;5093696;27;20303;-51
2022/09/22 12:33:30;;;;;;;8.40;4.13;;;17.70;99.90;;;;;;5095092;27;20047;-54
2022/09/22 12:35:57;;;;;;;7.68;3.90;;;18.10;99.90;;;;;;5092594;28;20040;-50
2022/09/22 12:38:24;;;;;;;7.88;3.95;;;18.10;99.90;;;;;;5094889;27;20097;-55
2022/09/22 12:40:53;;;;;;;8.82;4.22;;;18.30;99.90;;;;;;5096498;28;20046;-50
2022/09/22 12:43:23;;;;;;;7.13;3.67;;;18.10;99.90;;;;;;5094552;27;20035;-50
2022/09/22 12:45:52;;;;;;;6.63;3.50;;;17.90;99.90;;;;;;5096272;27;20407;-51
2022/09/22 12:48:42;;;;;;;9.48;3.25;;;18.30;99.90;;;;;;5096235;27;20422;-48
2022/09/22 12:51:32;;;;;;;8.63;4.07;;;18.30;99.90;;;;;;5096624;27;20592;-49
2022/09/22 12:54:22;;;;;;;10.98;3.05;;;18.60;99.90;;;;;;5086808;27;20071;-51
2022/09/22 12:57:08;;;;;;;10.25;4.28;;;18.50;99.90;;;;;;5094324;27;20560;-52
2022/09/22 12:59:36;;;;;;;8.75;3.75;;;18.80;99.90;;;;;;5094653;27;20059;-51
2022/09/22 13:02:17;;;;;;;11.27;4.20;;;18.80;99.90;;;;;;5095222;28;20040;-50
2022/09/22 13:04:55;;;;;;;9.07;4.18;;;18.40;99.90;;;;;;5096403;27;20128;-49
2022/09/22 13:07:38;;;;;;;7.55;4.32;;;18.30;99.90;;;;;;5096135;27;20035;-51
2022/09/22 13:10:33;;;;;;;7.35;3.63;;;17.80;99.90;;;;;;5096677;27;20039;-49
2022/09/22 13:13:02;;;;;;;9.55;3.80;;;18.00;99.90;;;;;;5006236;28;20064;-48
2022/09/22 13:15:55;;;;;;;10.00;3.35;;;18.70;99.90;;;;;;5095309;28;20036;-51
2022/09/22 13:18:34;;;;;;;7.55;3.67;;;18.10;99.90;;;;;;5094344;27;20060;-50
2022/09/22 13:21:10;;;;;;;8.35;3.53;;;18.10;99.90;;;;;;5096480;27;20071;-51
2022/09/22 13:23:57;;;;;;;8.65;3.45;;;18.30;99.90;;;;;;5096791;28;20123;-48
2022/09/22 13:26:28;;;;;;;10.13;4.07;;;18.30;99.90;;;;;;5095017;28;20062;-49
2022/09/22 13:29:02;;;;;;;10.38;4.30;;;18.40;99.90;;;;;;5095654;27;20112;-52
2022/09/22 13:31:38;;;;;;;10.30;3.60;;;18.50;99.90;;;;;;5095091;28;20050;-51
2022/09/22 13:34:20;;;;;;;8.23;3.88;;;18.50;99.90;;;;;;5094273;27;20035;-49
2022/09/22 13:36:46;;;;;;;;;;;18.40;99.90;;;;;;5095999;27;20118;-51